createdAt,value
2018-08-09T00:01:43.628Z,50.80
2018-08-09T00:06:46.735Z,50.60
2018-08-09T00:11:49.822Z,50.50
2018-08-09T00:16:52.927Z,50.60
2018-08-09T00:21:56.030Z,50.60
2018-08-09T00:26:59.151Z,50.50
2018-08-09T00:32:02.252Z,50.60
2018-08-09T00:37:05.544Z,50.50
2018-08-09T00:42:08.661Z,50.60
2018-08-09T00:47:11.840Z,50.80
2018-08-09T00:52:14.954Z,51.10
2018-08-09T00:57:18.043Z,51.10
2018-08-09T01:02:21.283Z,51.20
2018-08-09T01:07:24.463Z,51.20
2018-08-09T01:12:27.588Z,51.20
2018-08-09T01:17:30.726Z,51.10
2018-08-09T01:22:33.816Z,51.20
2018-08-09T01:27:36.923Z,51.40
2018-08-09T01:32:40.029Z,51.40
2018-08-09T01:37:43.131Z,51.30
2018-08-09T01:42:57.843Z,51.20
2018-08-09T01:48:00.943Z,51.20
2018-08-09T01:53:04.039Z,51.20
2018-08-09T01:58:07.135Z,51.10
2018-08-09T02:03:10.252Z,51.00
2018-08-09T02:08:13.346Z,51.20
2018-08-09T02:13:16.459Z,50.80
2018-08-09T02:18:19.495Z,50.80
2018-08-09T02:23:22.611Z,50.90
2018-08-09T02:28:25.703Z,50.90
2018-08-09T02:33:28.796Z,50.80
2018-08-09T02:38:31.903Z,50.90
2018-08-09T02:43:35.006Z,50.70
2018-08-09T02:48:38.117Z,51.20
2018-08-09T02:53:41.272Z,51.30
2018-08-09T02:58:44.362Z,51.40
2018-08-09T03:03:47.456Z,51.10
2018-08-09T03:08:50.551Z,51.30
2018-08-09T03:13:53.666Z,51.10
2018-08-09T03:18:56.763Z,51.20
2018-08-09T03:23:59.851Z,52.10
2018-08-09T03:29:03.039Z,51.40
2018-08-09T03:34:06.217Z,51.50
2018-08-09T03:39:10.811Z,51.50
2018-08-09T03:44:13.963Z,51.50
2018-08-09T03:49:17.068Z,51.50
2018-08-09T03:54:20.180Z,51.50
2018-08-09T03:59:23.264Z,51.80
2018-08-09T04:04:26.387Z,51.60
2018-08-09T04:09:29.471Z,51.80
2018-08-09T04:14:32.607Z,51.90
2018-08-09T04:19:35.707Z,52.00
2018-08-09T04:24:38.812Z,52.60
2018-08-09T04:29:41.938Z,52.60
2018-08-09T04:34:45.044Z,52.60
2018-08-09T04:39:48.137Z,52.90
2018-08-09T04:44:51.247Z,52.40
2018-08-09T04:49:54.350Z,52.80
2018-08-09T04:54:57.435Z,53.30
2018-08-09T05:00:00.532Z,53.00
2018-08-09T05:05:03.667Z,53.10
2018-08-09T05:10:10.770Z,52.80
2018-08-09T05:15:14.078Z,52.90
2018-08-09T05:20:17.159Z,53.20
2018-08-09T05:25:20.327Z,52.50
2018-08-09T05:30:23.427Z,52.60
2018-08-09T05:35:26.679Z,52.40
2018-08-09T05:40:29.792Z,52.40
2018-08-09T05:45:32.911Z,52.80
2018-08-09T05:50:36.032Z,52.20
2018-08-09T05:55:39.149Z,52.80
2018-08-09T06:00:42.252Z,53.00
2018-08-09T06:05:45.424Z,52.80
2018-08-09T06:10:49.083Z,52.10
2018-08-09T06:15:52.163Z,51.90
2018-08-09T06:20:55.351Z,51.90
2018-08-09T06:25:58.485Z,51.80
2018-08-09T06:31:01.581Z,51.60
2018-08-09T06:36:04.719Z,51.50
2018-08-09T06:41:07.839Z,51.00
2018-08-09T06:46:10.939Z,50.80
2018-08-09T06:51:14.050Z,50.40
2018-08-09T06:56:17.216Z,50.00
2018-08-09T07:01:20.283Z,49.50
2018-08-09T07:06:23.475Z,49.50
2018-08-09T07:11:26.574Z,49.20
2018-08-09T07:16:29.687Z,49.50
2018-08-09T07:21:32.786Z,49.00
2018-08-09T07:26:35.919Z,48.80
2018-08-09T07:31:39.015Z,48.80
2018-08-09T07:36:42.188Z,48.20
2018-08-09T07:41:45.331Z,48.30
2018-08-09T07:46:48.427Z,48.50
2018-08-09T07:51:51.564Z,47.90
2018-08-09T07:56:54.672Z,47.60
2018-08-09T08:01:57.751Z,47.30
2018-08-09T08:07:00.859Z,47.40
2018-08-09T08:12:03.951Z,47.10
2018-08-09T08:17:07.055Z,47.30
2018-08-09T08:22:10.156Z,46.40
2018-08-09T08:27:13.284Z,45.90
2018-08-09T08:32:16.504Z,46.60
2018-08-09T08:37:19.603Z,45.70
2018-08-09T08:42:22.707Z,45.40
2018-08-09T08:47:25.837Z,44.80
2018-08-09T08:52:29.031Z,44.60
2018-08-09T08:57:32.144Z,44.30
2018-08-09T09:02:35.580Z,43.20
2018-08-09T09:07:39.108Z,43.00
2018-08-09T09:12:42.286Z,42.60
2018-08-09T09:17:45.393Z,41.10
2018-08-09T09:22:55.121Z,42.10
2018-08-09T09:27:58.233Z,40.90
2018-08-09T09:33:01.339Z,41.80
2018-08-09T09:38:04.644Z,40.00
2018-08-09T09:43:07.783Z,40.20
2018-08-09T09:48:10.913Z,40.80
2018-08-09T09:53:14.001Z,40.00
2018-08-09T09:58:17.196Z,39.90
2018-08-09T10:03:20.421Z,39.00
2018-08-09T10:08:23.511Z,38.70
2018-08-09T10:13:27.739Z,38.30
2018-08-09T10:18:30.879Z,37.70
2018-08-09T10:23:34.086Z,38.00
2018-08-09T10:28:37.203Z,38.50
2018-08-09T10:33:40.386Z,37.50
2018-08-09T10:38:43.587Z,37.60
2018-08-09T10:43:47.624Z,36.80
2018-08-09T10:48:50.712Z,36.50
2018-08-09T10:53:54.080Z,36.30
2018-08-09T10:58:57.202Z,37.20
2018-08-09T11:04:00.288Z,37.00
2018-08-09T11:09:05.756Z,35.90
2018-08-09T11:14:08.840Z,35.70
2018-08-09T11:19:11.911Z,35.80
2018-08-09T11:24:15.020Z,35.50
2018-08-09T11:29:18.118Z,34.80
2018-08-09T11:34:21.239Z,35.00
2018-08-09T11:39:24.343Z,34.50
2018-08-09T11:44:27.463Z,34.10
2018-08-09T11:49:30.573Z,34.50
2018-08-09T11:54:33.699Z,33.90
2018-08-09T11:59:36.799Z,33.60
2018-08-09T12:04:40.114Z,33.70
2018-08-09T12:09:43.293Z,33.40
2018-08-09T12:14:46.399Z,33.30
2018-08-09T12:19:49.521Z,33.40
2018-08-09T12:24:52.645Z,33.80
2018-08-09T12:29:55.771Z,33.00
2018-08-09T12:34:58.860Z,33.30
2018-08-09T12:40:02.032Z,33.10
2018-08-09T12:45:06.155Z,33.30
2018-08-09T12:50:12.512Z,33.20
2018-08-09T12:55:15.598Z,33.40
2018-08-09T13:00:18.716Z,33.40
2018-08-09T13:05:21.824Z,33.20
2018-08-09T13:10:24.962Z,33.30
2018-08-09T13:15:28.082Z,33.40
2018-08-09T13:20:31.181Z,33.30
2018-08-09T13:25:34.287Z,33.00
2018-08-09T13:30:37.836Z,33.30
2018-08-09T13:35:42.116Z,32.90
2018-08-09T13:40:45.211Z,32.70
2018-08-09T13:45:48.338Z,33.10
2018-08-09T13:50:51.452Z,32.70
2018-08-09T13:55:54.592Z,33.20
2018-08-09T14:00:57.820Z,33.30
2018-08-09T14:06:00.923Z,33.40
2018-08-09T14:11:04.035Z,33.50
2018-08-09T14:16:07.638Z,33.60
2018-08-09T14:21:10.668Z,34.10
2018-08-09T14:26:13.785Z,34.10
2018-08-09T14:31:16.879Z,34.30
2018-08-09T14:36:20.035Z,34.50
2018-08-09T14:41:23.107Z,34.50
2018-08-09T14:46:26.208Z,34.50
2018-08-09T14:51:29.307Z,34.40
2018-08-09T14:56:32.420Z,34.30
2018-08-09T15:01:35.598Z,34.40
2018-08-09T15:06:38.721Z,34.70
2018-08-09T15:11:42.039Z,34.90
2018-08-09T15:16:45.132Z,35.00
2018-08-09T15:21:48.231Z,35.20
2018-08-09T15:26:51.348Z,35.40
2018-08-09T15:31:54.465Z,35.50
2018-08-09T15:36:57.560Z,35.70
2018-08-09T15:42:00.696Z,35.80
2018-08-09T15:47:03.850Z,35.90
2018-08-09T15:52:06.965Z,36.00
2018-08-09T15:57:10.097Z,36.20
2018-08-09T16:02:13.290Z,36.30
2018-08-09T16:07:16.496Z,36.50
2018-08-09T16:12:19.708Z,36.50
2018-08-09T16:17:22.927Z,36.60
2018-08-09T16:22:26.033Z,36.70
2018-08-09T16:27:29.156Z,36.90
2018-08-09T16:32:32.316Z,36.90
2018-08-09T16:37:35.448Z,37.00
2018-08-09T16:42:38.543Z,37.10
2018-08-09T16:47:41.704Z,37.10
2018-08-09T16:52:45.275Z,37.20
2018-08-09T16:57:48.512Z,37.40
2018-08-09T17:02:52.695Z,37.80
2018-08-09T17:07:55.859Z,40.00
2018-08-09T17:12:58.955Z,42.60
2018-08-09T17:18:02.079Z,44.10
2018-08-09T17:23:05.213Z,45.10
2018-08-09T17:28:08.332Z,44.80
2018-08-09T17:33:11.444Z,45.20
2018-08-09T17:38:14.580Z,44.80
2018-08-09T17:43:17.771Z,44.70
2018-08-09T17:48:20.895Z,45.30
2018-08-09T17:53:24.079Z,45.80
2018-08-09T17:58:27.218Z,45.80
2018-08-09T18:03:30.340Z,46.30
2018-08-09T18:08:39.862Z,46.30
2018-08-09T18:13:43.003Z,46.40
2018-08-09T18:18:46.174Z,47.00
2018-08-09T18:23:49.420Z,47.00
2018-08-09T18:28:52.547Z,47.30
2018-08-09T18:33:55.656Z,48.10
2018-08-09T18:38:58.836Z,48.30
2018-08-09T18:44:01.952Z,48.80
2018-08-09T18:54:14.532Z,50.20
2018-08-09T18:59:17.692Z,49.70
2018-08-09T19:04:20.756Z,49.60
2018-08-09T19:09:23.876Z,49.80
2018-08-09T19:14:27.048Z,50.40
2018-08-09T19:19:30.150Z,50.60
2018-08-09T19:24:33.280Z,50.60
2018-08-09T19:29:36.395Z,50.40
2018-08-09T19:34:39.504Z,50.80
2018-08-09T19:39:42.635Z,51.10
2018-08-09T19:44:45.740Z,52.00
2018-08-09T19:49:48.849Z,51.40
2018-08-09T19:54:51.934Z,51.70
2018-08-09T19:59:55.085Z,51.90
2018-08-09T20:04:58.261Z,52.80
2018-08-09T20:10:01.388Z,52.10
2018-08-09T20:15:07.245Z,52.40
2018-08-09T20:20:11.812Z,53.10
2018-08-09T20:25:15.363Z,52.80
2018-08-09T20:30:19.089Z,52.80
2018-08-09T20:35:23.216Z,52.80
2018-08-09T20:40:26.315Z,53.00
2018-08-09T20:45:29.629Z,53.10
2018-08-09T20:50:32.741Z,53.10
2018-08-09T20:55:35.957Z,53.00
2018-08-09T21:00:39.120Z,53.50
2018-08-09T21:05:42.310Z,53.30
2018-08-09T21:10:45.416Z,53.00
2018-08-09T21:15:48.509Z,53.40
2018-08-09T21:20:51.614Z,53.30
2018-08-09T21:25:54.723Z,53.70
2018-08-09T21:30:57.841Z,53.50
2018-08-09T21:36:00.952Z,53.60
2018-08-09T21:41:04.028Z,53.60
2018-08-09T21:46:07.136Z,53.70
2018-08-09T21:51:10.236Z,54.10
2018-08-09T21:56:13.338Z,53.90
2018-08-09T22:01:16.433Z,54.20
2018-08-09T22:06:24.948Z,54.20
2018-08-09T22:11:33.410Z,55.00
2018-08-09T22:16:41.892Z,54.30
2018-08-09T22:21:50.480Z,54.50
2018-08-09T22:26:53.648Z,54.50
2018-08-09T22:31:56.884Z,55.00
2018-08-09T22:36:59.980Z,55.20
2018-08-09T22:42:34.368Z,55.40
2018-08-09T22:47:37.488Z,55.50
2018-08-09T22:52:40.595Z,56.10
2018-08-09T22:57:43.713Z,56.10
2018-08-09T23:02:46.843Z,56.40
2018-08-09T23:07:50.601Z,56.30
2018-08-09T23:12:54.367Z,56.60
2018-08-09T23:17:57.629Z,56.60
2018-08-09T23:23:00.752Z,56.90
2018-08-09T23:28:03.884Z,56.80
2018-08-09T23:33:06.972Z,57.00
2018-08-09T23:38:10.070Z,56.30
2018-08-09T23:43:13.559Z,56.10
2018-08-09T23:48:16.660Z,55.80
2018-08-09T23:53:19.793Z,55.70
2018-08-09T23:58:23.027Z,55.70
